Aeroporto :
LOGIN :

Iscrizione | Disclaimer

   EN    FR    IT 

 










Sommario :    VFR   VFR Marginale   IFR   IFR Intensivo   IFR Molto Intensivo
Visibilità : 
Base nubi : 
>= 8 km
>= 3000ft
5 / 8 km
1000 / 3000 ft
1500m / 5 km
500 / 1000 ft
800 / 1500m
200 / 500 ft
< 800m
< 200 ft
Simboli :   Temporali  Nebbia  Neve Forte  Precipitazioni Forti  Vento > 20 kt
SIGMETs :   Varie  Temporali  Ghiacco  Turbolenza  Onda orograficha  Ceneri Vulcaniche






- Altitudine del aeroporto : 20 ft


EBFN - Koksijde

ULTIMO METAR :
  • 230653Z AUTO 06006KT 3600 BR OVC050/// 11/10 Q1017 YLO

METARs OBSOLETI :
  • 230625Z AUTO 06007KT 4300 BR SCT065/// BKN090/// 11/10 Q1017 GRN
  • 230555Z AUTO 08008KT 3800 BR OVC069/// 11/10 Q1017 GRN
  • 230525Z AUTO 08009KT 4200 BR OVC077/// 11/10 Q1018 GRN
  • 230514Z AUTO 08008KT 4900 -DZ OVC076/// 11/10 Q1018 GRN
  • 230455Z AUTO 09007KT 3600 -DZ OVC076/// 10/10 Q1018 YLO
  • 230450Z AUTO 08006KT 3500 -RA OVC084/// 11/10 Q1019 YLO
  • 230425Z AUTO 08007KT 3700 BR FEW072/// BKN091/// BKN130/// 10/10 Q1018 GRN
  • 230355Z AUTO 06005KT 3600 BR SCT099/// BKN110/// OVC130/// 10/10 Q1018 YLO

TAF TAF EBFN
Valido dal 23 a 07 ore il 23 a 16 ore UTC


230541Z 2307/2316 08008KT 4500 BR FEW020 BKN080
PROB40
TEMPO 2307/2309 4000 -RA SCT020 BKN080
BECMG 2308/2310 7000 NSW
BECMG 2309/2311 9999



MetMap, La meteo Aeronautica in un colpo d'occhio ! - Copyright ORBIFLY Dicembre 2007 - Disclaimer

ORBIFLY MET'MAP TEAM :

Programmazione e sviluppo : Alexandra Zaïnal
Concezione e sviluppo : Baudouin d'Aumeries
Co-Programmazione e sviluppo : Marc-Olivier Méhu
Supporto tecnico e logistico : Manuel Goepfert
Aiuto per la traduzione : Arnaldo La Scala

Contatto : metmap@orbifly.com




FONTI E CREDITI :

   NOAA